sensor_id;sensor_type;location;lat;lon;timestamp;temperature;humidity
23744;DHT22;12052;53.478;10.182;2023-07-31T00:00:06;13.70;99.90
23744;DHT22;12052;53.478;10.182;2023-07-31T00:02:34;13.70;99.90
23744;DHT22;12052;53.478;10.182;2023-07-31T00:05:00;13.70;99.90
23744;DHT22;12052;53.478;10.182;2023-07-31T00:07:26;13.70;99.90
23744;DHT22;12052;53.478;10.182;2023-07-31T00:09:52;13.70;99.90
23744;DHT22;12052;53.478;10.182;2023-07-31T00:12:19;13.70;99.90
23744;DHT22;12052;53.478;10.182;2023-07-31T00:14:45;13.80;99.90
23744;DHT22;12052;53.478;10.182;2023-07-31T00:17:11;13.80;99.90
23744;DHT22;12052;53.478;10.182;2023-07-31T00:19:37;13.80;99.90
23744;DHT22;12052;53.478;10.182;2023-07-31T00:22:02;13.70;99.90
23744;DHT22;12052;53.478;10.182;2023-07-31T00:24:28;13.80;99.90
23744;DHT22;12052;53.478;10.182;2023-07-31T00:26:53;13.80;99.90
23744;DHT22;12052;53.478;10.182;2023-07-31T00:29:19;13.80;99.90
23744;DHT22;12052;53.478;10.182;2023-07-31T00:31:45;13.80;99.90
23744;DHT22;12052;53.478;10.182;2023-07-31T00:34:10;13.80;99.90
23744;DHT22;12052;53.478;10.182;2023-07-31T00:36:36;13.80;99.90
23744;DHT22;12052;53.478;10.182;2023-07-31T00:39:01;13.80;99.90
23744;DHT22;12052;53.478;10.182;2023-07-31T00:41:27;13.80;99.90
23744;DHT22;12052;53.478;10.182;2023-07-31T00:43:52;13.80;99.90
23744;DHT22;12052;53.478;10.182;2023-07-31T00:46:18;13.90;99.90
23744;DHT22;12052;53.478;10.182;2023-07-31T00:48:44;13.90;99.90
23744;DHT22;12052;53.478;10.182;2023-07-31T00:51:10;13.90;99.90
23744;DHT22;12052;53.478;10.182;2023-07-31T00:53:36;13.90;99.90
23744;DHT22;12052;53.478;10.182;2023-07-31T00:56:03;13.90;99.90
23744;DHT22;12052;53.478;10.182;2023-07-31T00:58:28;13.90;99.90
23744;DHT22;12052;53.478;10.182;2023-07-31T01:00:54;13.90;99.90
23744;DHT22;12052;53.478;10.182;2023-07-31T01:03:19;13.90;99.90
23744;DHT22;12052;53.478;10.182;2023-07-31T01:09:16;13.90;99.90
23744;DHT22;12052;53.478;10.182;2023-07-31T01:11:57;13.90;99.90
23744;DHT22;12052;53.478;10.182;2023-07-31T01:14:25;13.80;99.90
23744;DHT22;12052;53.478;10.182;2023-07-31T01:16:50;13.90;99.90
23744;DHT22;12052;53.478;10.182;2023-07-31T01:19:18;13.80;99.90
23744;DHT22;12052;53.478;10.182;2023-07-31T01:22:30;13.80;99.90
23744;DHT22;12052;53.478;10.182;2023-07-31T01:25:10;13.80;99.90
23744;DHT22;12052;53.478;10.182;2023-07-31T01:27:54;13.80;99.90
23744;DHT22;12052;53.478;10.182;2023-07-31T01:30:27;13.80;99.90
23744;DHT22;12052;53.478;10.182;2023-07-31T01:32:54;13.80;99.90
23744;DHT22;12052;53.478;10.182;2023-07-31T01:35:21;13.70;99.90
23744;DHT22;12052;53.478;10.182;2023-07-31T01:37:47;13.70;99.90
23744;DHT22;12052;53.478;10.182;2023-07-31T01:40:12;13.70;99.90
23744;DHT22;12052;53.478;10.182;2023-07-31T01:42:38;13.80;99.90
23744;DHT22;12052;53.478;10.182;2023-07-31T01:45:04;13.80;99.90
23744;DHT22;12052;53.478;10.182;2023-07-31T01:47:30;13.80;99.90
23744;DHT22;12052;53.478;10.182;2023-07-31T01:49:55;13.90;99.90
23744;DHT22;12052;53.478;10.182;2023-07-31T01:52:21;13.90;99.90
23744;DHT22;12052;53.478;10.182;2023-07-31T01:54:46;13.90;99.90
23744;DHT22;12052;53.478;10.182;2023-07-31T01:57:12;13.90;99.90
23744;DHT22;12052;53.478;10.182;2023-07-31T01:59:37;13.90;99.90
23744;DHT22;12052;53.478;10.182;2023-07-31T02:02:03;13.90;99.90
23744;DHT22;12052;53.478;10.182;2023-07-31T02:04:29;13.90;99.90
23744;DHT22;12052;53.478;10.182;2023-07-31T02:06:54;13.90;99.90
23744;DHT22;12052;53.478;10.182;2023-07-31T02:09:20;13.90;99.90
23744;DHT22;12052;53.478;10.182;2023-07-31T02:11:45;13.90;99.90
23744;DHT22;12052;53.478;10.182;2023-07-31T02:14:11;14.00;99.90
23744;DHT22;12052;53.478;10.182;2023-07-31T02:16:36;14.00;99.90
23744;DHT22;12052;53.478;10.182;2023-07-31T02:19:02;14.00;99.90
23744;DHT22;12052;53.478;10.182;2023-07-31T02:21:28;14.00;99.90
23744;DHT22;12052;53.478;10.182;2023-07-31T02:23:53;14.10;99.90
23744;DHT22;12052;53.478;10.182;2023-07-31T02:26:19;14.10;99.90
23744;DHT22;12052;53.478;10.182;2023-07-31T02:28:44;14.10;99.90
23744;DHT22;12052;53.478;10.182;2023-07-31T02:31:10;14.10;99.90
23744;DHT22;12052;53.478;10.182;2023-07-31T02:33:35;14.10;99.90
23744;DHT22;12052;53.478;10.182;2023-07-31T02:36:01;14.20;99.90
23744;DHT22;12052;53.478;10.182;2023-07-31T02:38:27;14.20;99.90
23744;DHT22;12052;53.478;10.182;2023-07-31T02:40:52;14.20;99.90
23744;DHT22;12052;53.478;10.182;2023-07-31T02:43:18;14.20;99.90
23744;DHT22;12052;53.478;10.182;2023-07-31T02:45:43;14.20;99.90
23744;DHT22;12052;53.478;10.182;2023-07-31T02:48:09;14.30;99.90
23744;DHT22;12052;53.478;10.182;2023-07-31T02:50:34;14.30;99.90
23744;DHT22;12052;53.478;10.182;2023-07-31T02:53:00;14.40;99.90
23744;DHT22;12052;53.478;10.182;2023-07-31T02:55:26;14.40;99.90
23744;DHT22;12052;53.478;10.182;2023-07-31T02:57:51;14.40;99.90
23744;DHT22;12052;53.478;10.182;2023-07-31T03:00:18;14.40;99.90
23744;DHT22;12052;53.478;10.182;2023-07-31T03:02:43;14.50;99.90
23744;DHT22;12052;53.478;10.182;2023-07-31T03:05:09;14.50;99.90
23744;DHT22;12052;53.478;10.182;2023-07-31T03:07:34;14.50;99.90
23744;DHT22;12052;53.478;10.182;2023-07-31T03:10:00;14.50;99.90
23744;DHT22;12052;53.478;10.182;2023-07-31T03:12:26;14.60;99.90
23744;DHT22;12052;53.478;10.182;2023-07-31T03:14:51;14.60;99.90
23744;DHT22;12052;53.478;10.182;2023-07-31T03:17:17;14.60;99.90
23744;DHT22;12052;53.478;10.182;2023-07-31T03:19:43;14.60;99.90
23744;DHT22;12052;53.478;10.182;2023-07-31T03:22:08;14.60;99.90
23744;DHT22;12052;53.478;10.182;2023-07-31T03:24:34;14.60;99.90
23744;DHT22;12052;53.478;10.182;2023-07-31T03:26:59;14.60;99.90
23744;DHT22;12052;53.478;10.182;2023-07-31T03:29:25;14.60;99.90
23744;DHT22;12052;53.478;10.182;2023-07-31T03:31:50;14.60;99.90
23744;DHT22;12052;53.478;10.182;2023-07-31T03:34:17;14.60;99.90
23744;DHT22;12052;53.478;10.182;2023-07-31T03:36:42;14.70;99.90
23744;DHT22;12052;53.478;10.182;2023-07-31T03:39:08;14.70;99.90
23744;DHT22;12052;53.478;10.182;2023-07-31T03:41:34;14.70;99.90
23744;DHT22;12052;53.478;10.182;2023-07-31T03:43:59;14.70;99.90
23744;DHT22;12052;53.478;10.182;2023-07-31T03:46:25;14.70;99.90
23744;DHT22;12052;53.478;10.182;2023-07-31T03:48:50;14.70;99.90
23744;DHT22;12052;53.478;10.182;2023-07-31T03:51:16;14.70;99.90
23744;DHT22;12052;53.478;10.182;2023-07-31T03:53:43;14.80;99.90
23744;DHT22;12052;53.478;10.182;2023-07-31T03:56:09;14.80;99.90
23744;DHT22;12052;53.478;10.182;2023-07-31T03:58:35;14.90;99.90
23744;DHT22;12052;53.478;10.182;2023-07-31T04:01:02;14.90;99.90
23744;DHT22;12052;53.478;10.182;2023-07-31T04:03:28;14.90;99.90
23744;DHT22;12052;53.478;10.182;2023-07-31T04:05:55;14.90;99.90
23744;DHT22;12052;53.478;10.182;2023-07-31T04:08:23;14.90;99.90
23744;DHT22;12052;53.478;10.182;2023-07-31T04:10:49;14.90;99.90
23744;DHT22;12052;53.478;10.182;2023-07-31T04:13:15;14.90;99.90
23744;DHT22;12052;53.478;10.182;2023-07-31T04:15:40;14.90;99.90
23744;DHT22;12052;53.478;10.182;2023-07-31T04:18:06;14.90;99.90
23744;DHT22;12052;53.478;10.182;2023-07-31T04:20:32;15.00;99.90
23744;DHT22;12052;53.478;10.182;2023-07-31T04:22:57;14.90;99.90
23744;DHT22;12052;53.478;10.182;2023-07-31T04:25:23;14.90;99.90
23744;DHT22;12052;53.478;10.182;2023-07-31T04:27:48;14.90;99.90
23744;DHT22;12052;53.478;10.182;2023-07-31T04:30:14;14.90;99.90
23744;DHT22;12052;53.478;10.182;2023-07-31T04:32:40;14.90;99.90
23744;DHT22;12052;53.478;10.182;2023-07-31T04:35:05;14.90;99.90
23744;DHT22;12052;53.478;10.182;2023-07-31T04:37:31;15.00;99.90
23744;DHT22;12052;53.478;10.182;2023-07-31T04:39:57;15.00;99.90
23744;DHT22;12052;53.478;10.182;2023-07-31T04:42:22;15.00;99.90
23744;DHT22;12052;53.478;10.182;2023-07-31T04:44:48;15.00;99.90
23744;DHT22;12052;53.478;10.182;2023-07-31T04:47:14;15.00;99.90
23744;DHT22;12052;53.478;10.182;2023-07-31T04:49:39;15.00;99.90
23744;DHT22;12052;53.478;10.182;2023-07-31T04:52:05;15.00;99.90
23744;DHT22;12052;53.478;10.182;2023-07-31T04:54:31;14.90;99.90
23744;DHT22;12052;53.478;10.182;2023-07-31T04:56:56;14.90;99.90
23744;DHT22;12052;53.478;10.182;2023-07-31T04:59:22;14.90;99.90
23744;DHT22;12052;53.478;10.182;2023-07-31T05:01:47;14.90;99.90
23744;DHT22;12052;53.478;10.182;2023-07-31T05:04:14;14.90;99.90
23744;DHT22;12052;53.478;10.182;2023-07-31T05:06:40;14.90;99.90
23744;DHT22;12052;53.478;10.182;2023-07-31T05:09:06;14.90;99.90
23744;DHT22;12052;53.478;10.182;2023-07-31T05:11:33;14.90;99.90
23744;DHT22;12052;53.478;10.182;2023-07-31T05:13:59;14.90;99.90
23744;DHT22;12052;53.478;10.182;2023-07-31T05:16:24;14.90;99.90
23744;DHT22;12052;53.478;10.182;2023-07-31T05:18:50;14.90;99.90
23744;DHT22;12052;53.478;10.182;2023-07-31T05:21:15;14.90;99.90
23744;DHT22;12052;53.478;10.182;2023-07-31T05:23:41;14.90;99.90
23744;DHT22;12052;53.478;10.182;2023-07-31T05:26:07;14.90;99.90
23744;DHT22;12052;53.478;10.182;2023-07-31T05:28:35;14.90;99.90
23744;DHT22;12052;53.478;10.182;2023-07-31T05:31:02;15.00;99.90
23744;DHT22;12052;53.478;10.182;2023-07-31T05:33:28;15.00;99.90
23744;DHT22;12052;53.478;10.182;2023-07-31T05:35:54;14.90;99.90
23744;DHT22;12052;53.478;10.182;2023-07-31T05:38:19;15.00;99.90
23744;DHT22;12052;53.478;10.182;2023-07-31T05:40:45;14.90;99.90
23744;DHT22;12052;53.478;10.182;2023-07-31T05:43:11;15.00;99.90
23744;DHT22;12052;53.478;10.182;2023-07-31T05:45:36;15.00;99.90
23744;DHT22;12052;53.478;10.182;2023-07-31T05:48:02;15.00;99.90
23744;DHT22;12052;53.478;10.182;2023-07-31T05:50:28;15.00;99.90
23744;DHT22;12052;53.478;10.182;2023-07-31T05:52:54;15.00;99.90
23744;DHT22;12052;53.478;10.182;2023-07-31T05:55:20;15.00;99.90
23744;DHT22;12052;53.478;10.182;2023-07-31T05:58:16;15.00;99.90
23744;DHT22;12052;53.478;10.182;2023-07-31T06:00:47;15.00;99.90
23744;DHT22;12052;53.478;10.182;2023-07-31T06:03:16;15.00;99.90
23744;DHT22;12052;53.478;10.182;2023-07-31T06:05:42;15.10;99.90
23744;DHT22;12052;53.478;10.182;2023-07-31T06:08:07;15.10;99.90
23744;DHT22;12052;53.478;10.182;2023-07-31T06:10:33;15.10;99.90
23744;DHT22;12052;53.478;10.182;2023-07-31T06:13:00;15.10;99.90
23744;DHT22;12052;53.478;10.182;2023-07-31T06:15:25;15.20;99.90
23744;DHT22;12052;53.478;10.182;2023-07-31T06:17:51;15.20;99.90
23744;DHT22;12052;53.478;10.182;2023-07-31T06:20:16;15.20;99.90
23744;DHT22;12052;53.478;10.182;2023-07-31T06:22:42;15.20;99.90
23744;DHT22;12052;53.478;10.182;2023-07-31T06:25:08;15.20;99.90
23744;DHT22;12052;53.478;10.182;2023-07-31T06:27:33;15.30;99.90
23744;DHT22;12052;53.478;10.182;2023-07-31T06:29:59;15.30;99.90
23744;DHT22;12052;53.478;10.182;2023-07-31T06:32:25;15.30;99.90
23744;DHT22;12052;53.478;10.182;2023-07-31T06:34:50;15.30;99.90
23744;DHT22;12052;53.478;10.182;2023-07-31T06:37:16;15.30;99.90
23744;DHT22;12052;53.478;10.182;2023-07-31T06:39:42;15.30;99.90
23744;DHT22;12052;53.478;10.182;2023-07-31T06:42:07;15.40;99.90
23744;DHT22;12052;53.478;10.182;2023-07-31T06:44:42;15.40;99.90
23744;DHT22;12052;53.478;10.182;2023-07-31T06:47:25;15.30;99.90
23744;DHT22;12052;53.478;10.182;2023-07-31T06:49:51;15.40;99.90
23744;DHT22;12052;53.478;10.182;2023-07-31T06:52:28;15.30;99.90
23744;DHT22;12052;53.478;10.182;2023-07-31T06:58:32;15.50;99.90
23744;DHT22;12052;53.478;10.182;2023-07-31T07:00:58;15.60;99.90
23744;DHT22;12052;53.478;10.182;2023-07-31T07:03:39;15.60;99.90
23744;DHT22;12052;53.478;10.182;2023-07-31T07:06:22;15.60;99.90
23744;DHT22;12052;53.478;10.182;2023-07-31T07:08:50;15.70;99.90
23744;DHT22;12052;53.478;10.182;2023-07-31T07:11:24;15.70;99.90
23744;DHT22;12052;53.478;10.182;2023-07-31T07:13:53;15.70;99.90
23744;DHT22;12052;53.478;10.182;2023-07-31T07:16:21;15.60;99.90
23744;DHT22;12052;53.478;10.182;2023-07-31T07:18:49;15.70;99.90
23744;DHT22;12052;53.478;10.182;2023-07-31T07:21:17;15.70;99.90
23744;DHT22;12052;53.478;10.182;2023-07-31T07:23:46;15.60;99.90
23744;DHT22;12052;53.478;10.182;2023-07-31T07:26:26;15.60;99.90
23744;DHT22;12052;53.478;10.182;2023-07-31T07:28:52;15.70;99.90
23744;DHT22;12052;53.478;10.182;2023-07-31T07:31:23;15.70;99.90
23744;DHT22;12052;53.478;10.182;2023-07-31T07:33:49;15.70;99.90
23744;DHT22;12052;53.478;10.182;2023-07-31T07:36:14;15.80;99.90
23744;DHT22;12052;53.478;10.182;2023-07-31T07:38:40;15.70;99.90
23744;DHT22;12052;53.478;10.182;2023-07-31T07:41:06;15.70;99.90
23744;DHT22;12052;53.478;10.182;2023-07-31T07:43:32;15.70;99.90
23744;DHT22;12052;53.478;10.182;2023-07-31T07:45:58;15.70;99.90
23744;DHT22;12052;53.478;10.182;2023-07-31T07:48:26;15.80;99.90
23744;DHT22;12052;53.478;10.182;2023-07-31T07:50:51;15.80;99.90
23744;DHT22;12052;53.478;10.182;2023-07-31T07:53:17;15.90;99.90
23744;DHT22;12052;53.478;10.182;2023-07-31T07:55:42;15.90;99.90
23744;DHT22;12052;53.478;10.182;2023-07-31T07:58:08;16.00;99.90
23744;DHT22;12052;53.478;10.182;2023-07-31T08:00:34;16.00;99.90
23744;DHT22;12052;53.478;10.182;2023-07-31T08:02:59;16.10;99.90
23744;DHT22;12052;53.478;10.182;2023-07-31T08:05:25;16.10;99.90
23744;DHT22;12052;53.478;10.182;2023-07-31T08:07:50;16.10;99.90
23744;DHT22;12052;53.478;10.182;2023-07-31T08:10:16;16.10;99.90
23744;DHT22;12052;53.478;10.182;2023-07-31T08:12:42;16.20;99.90
23744;DHT22;12052;53.478;10.182;2023-07-31T08:15:07;16.30;99.90
23744;DHT22;12052;53.478;10.182;2023-07-31T08:17:33;16.30;99.90
23744;DHT22;12052;53.478;10.182;2023-07-31T08:19:59;16.30;99.90
23744;DHT22;12052;53.478;10.182;2023-07-31T08:22:24;16.30;99.90
23744;DHT22;12052;53.478;10.182;2023-07-31T08:24:51;16.30;99.90
23744;DHT22;12052;53.478;10.182;2023-07-31T08:27:16;16.30;99.90
23744;DHT22;12052;53.478;10.182;2023-07-31T08:29:42;16.40;99.90
23744;DHT22;12052;53.478;10.182;2023-07-31T08:32:07;16.40;99.90
23744;DHT22;12052;53.478;10.182;2023-07-31T08:34:33;16.40;99.90
23744;DHT22;12052;53.478;10.182;2023-07-31T08:36:58;16.40;99.90
23744;DHT22;12052;53.478;10.182;2023-07-31T08:39:24;16.40;99.90
23744;DHT22;12052;53.478;10.182;2023-07-31T08:41:50;16.40;99.90
23744;DHT22;12052;53.478;10.182;2023-07-31T08:44:17;16.40;99.90
23744;DHT22;12052;53.478;10.182;2023-07-31T08:46:44;16.40;99.90
23744;DHT22;12052;53.478;10.182;2023-07-31T08:49:10;16.40;99.90
23744;DHT22;12052;53.478;10.182;2023-07-31T08:51:36;16.40;99.90
23744;DHT22;12052;53.478;10.182;2023-07-31T08:54:02;16.50;99.90
23744;DHT22;12052;53.478;10.182;2023-07-31T08:56:32;16.50;99.90
23744;DHT22;12052;53.478;10.182;2023-07-31T08:58:59;16.60;99.90
23744;DHT22;12052;53.478;10.182;2023-07-31T09:01:29;16.50;99.90
23744;DHT22;12052;53.478;10.182;2023-07-31T09:03:56;16.50;99.90
23744;DHT22;12052;53.478;10.182;2023-07-31T09:06:24;16.60;99.90
23744;DHT22;12052;53.478;10.182;2023-07-31T09:08:50;16.60;99.90
23744;DHT22;12052;53.478;10.182;2023-07-31T09:11:17;16.70;99.90
23744;DHT22;12052;53.478;10.182;2023-07-31T09:13:43;16.60;99.90
23744;DHT22;12052;53.478;10.182;2023-07-31T09:16:08;16.70;99.90
23744;DHT22;12052;53.478;10.182;2023-07-31T09:18:56;16.70;99.90
23744;DHT22;12052;53.478;10.182;2023-07-31T09:21:22;16.60;99.90
23744;DHT22;12052;53.478;10.182;2023-07-31T09:23:50;16.60;99.90
23744;DHT22;12052;53.478;10.182;2023-07-31T09:26:35;16.60;99.90
23744;DHT22;12052;53.478;10.182;2023-07-31T09:29:01;16.70;99.90
23744;DHT22;12052;53.478;10.182;2023-07-31T09:31:39;16.80;99.90
23744;DHT22;12052;53.478;10.182;2023-07-31T09:34:06;16.80;99.90
23744;DHT22;12052;53.478;10.182;2023-07-31T09:36:32;16.70;99.90
23744;DHT22;12052;53.478;10.182;2023-07-31T09:39:03;16.80;99.90
23744;DHT22;12052;53.478;10.182;2023-07-31T09:41:30;16.90;99.90
23744;DHT22;12052;53.478;10.182;2023-07-31T09:43:56;16.80;99.90
23744;DHT22;12052;53.478;10.182;2023-07-31T09:46:21;16.70;99.90
23744;DHT22;12052;53.478;10.182;2023-07-31T09:48:47;16.80;99.90
23744;DHT22;12052;53.478;10.182;2023-07-31T09:51:13;16.80;99.90
23744;DHT22;12052;53.478;10.182;2023-07-31T09:53:39;16.80;99.90
23744;DHT22;12052;53.478;10.182;2023-07-31T09:56:05;16.70;99.90
23744;DHT22;12052;53.478;10.182;2023-07-31T09:58:34;16.60;99.90
23744;DHT22;12052;53.478;10.182;2023-07-31T10:01:01;16.50;99.90
23744;DHT22;12052;53.478;10.182;2023-07-31T10:03:29;16.50;99.90
23744;DHT22;12052;53.478;10.182;2023-07-31T10:05:56;16.40;99.90
23744;DHT22;12052;53.478;10.182;2023-07-31T10:08:27;16.40;99.90
23744;DHT22;12052;53.478;10.182;2023-07-31T10:10:58;16.40;99.90
23744;DHT22;12052;53.478;10.182;2023-07-31T10:13:25;16.30;99.90
23744;DHT22;12052;53.478;10.182;2023-07-31T10:15:53;16.40;99.90
23744;DHT22;12052;53.478;10.182;2023-07-31T10:18:20;16.40;99.90
23744;DHT22;12052;53.478;10.182;2023-07-31T10:20:46;16.30;99.90
23744;DHT22;12052;53.478;10.182;2023-07-31T10:23:12;16.30;99.90
23744;DHT22;12052;53.478;10.182;2023-07-31T10:25:38;16.30;99.90
23744;DHT22;12052;53.478;10.182;2023-07-31T10:28:04;16.40;99.90
23744;DHT22;12052;53.478;10.182;2023-07-31T10:30:32;16.40;99.90
23744;DHT22;12052;53.478;10.182;2023-07-31T10:32:59;16.40;99.90
23744;DHT22;12052;53.478;10.182;2023-07-31T10:35:25;16.40;99.90
23744;DHT22;12052;53.478;10.182;2023-07-31T10:37:52;16.40;99.90
23744;DHT22;12052;53.478;10.182;2023-07-31T10:40:19;16.50;99.90
23744;DHT22;12052;53.478;10.182;2023-07-31T10:42:55;16.50;99.90
23744;DHT22;12052;53.478;10.182;2023-07-31T10:45:39;16.50;99.90
23744;DHT22;12052;53.478;10.182;2023-07-31T10:48:12;16.50;99.90
23744;DHT22;12052;53.478;10.182;2023-07-31T10:50:46;16.50;99.90
23744;DHT22;12052;53.478;10.182;2023-07-31T10:53:23;16.50;99.90
23744;DHT22;12052;53.478;10.182;2023-07-31T10:55:49;16.70;99.90
23744;DHT22;12052;53.478;10.182;2023-07-31T10:58:19;16.80;99.90
23744;DHT22;12052;53.478;10.182;2023-07-31T11:00:46;17.00;99.90
23744;DHT22;12052;53.478;10.182;2023-07-31T11:03:18;17.10;99.90
23744;DHT22;12052;53.478;10.182;2023-07-31T11:05:47;17.20;99.90
23744;DHT22;12052;53.478;10.182;2023-07-31T11:08:30;17.20;99.90
23744;DHT22;12052;53.478;10.182;2023-07-31T11:16:07;17.20;99.90
23744;DHT22;12052;53.478;10.182;2023-07-31T11:18:32;17.20;99.90
23744;DHT22;12052;53.478;10.182;2023-07-31T11:20:58;17.40;99.90
23744;DHT22;12052;53.478;10.182;2023-07-31T11:23:24;17.40;99.90
23744;DHT22;12052;53.478;10.182;2023-07-31T11:25:50;17.30;99.90
23744;DHT22;12052;53.478;10.182;2023-07-31T11:28:17;17.30;99.90
23744;DHT22;12052;53.478;10.182;2023-07-31T11:30:44;17.40;99.90
23744;DHT22;12052;53.478;10.182;2023-07-31T11:33:11;17.30;99.90
23744;DHT22;12052;53.478;10.182;2023-07-31T11:35:45;17.30;99.90
23744;DHT22;12052;53.478;10.182;2023-07-31T11:38:12;17.40;99.90
23744;DHT22;12052;53.478;10.182;2023-07-31T11:40:42;17.40;99.90
23744;DHT22;12052;53.478;10.182;2023-07-31T11:43:08;17.40;99.90
23744;DHT22;12052;53.478;10.182;2023-07-31T11:45:34;17.40;99.90
23744;DHT22;12052;53.478;10.182;2023-07-31T11:48:00;17.40;99.90
23744;DHT22;12052;53.478;10.182;2023-07-31T11:50:26;17.30;99.90
23744;DHT22;12052;53.478;10.182;2023-07-31T11:53:00;17.30;99.90
23744;DHT22;12052;53.478;10.182;2023-07-31T11:55:28;17.20;99.90
23744;DHT22;12052;53.478;10.182;2023-07-31T11:57:57;17.20;99.90
23744;DHT22;12052;53.478;10.182;2023-07-31T12:00:23;17.20;99.90
23744;DHT22;12052;53.478;10.182;2023-07-31T12:02:50;17.30;99.90
23744;DHT22;12052;53.478;10.182;2023-07-31T12:05:16;17.30;99.90
23744;DHT22;12052;53.478;10.182;2023-07-31T12:07:49;17.40;99.90
23744;DHT22;12052;53.478;10.182;2023-07-31T12:13:02;17.50;99.90
23744;DHT22;12052;53.478;10.182;2023-07-31T12:15:42;17.40;99.90
23744;DHT22;12052;53.478;10.182;2023-07-31T12:18:16;17.40;99.90
23744;DHT22;12052;53.478;10.182;2023-07-31T12:20:49;17.40;99.90
23744;DHT22;12052;53.478;10.182;2023-07-31T12:23:20;17.40;99.90
23744;DHT22;12052;53.478;10.182;2023-07-31T12:26:19;17.40;99.90
23744;DHT22;12052;53.478;10.182;2023-07-31T12:28:47;17.30;99.90
23744;DHT22;12052;53.478;10.182;2023-07-31T12:31:20;17.30;99.90
23744;DHT22;12052;53.478;10.182;2023-07-31T12:33:47;17.40;99.90
23744;DHT22;12052;53.478;10.182;2023-07-31T12:36:21;17.50;99.90
23744;DHT22;12052;53.478;10.182;2023-07-31T12:38:47;17.60;99.90
23744;DHT22;12052;53.478;10.182;2023-07-31T12:41:13;17.50;99.90
23744;DHT22;12052;53.478;10.182;2023-07-31T12:43:41;17.60;99.90
23744;DHT22;12052;53.478;10.182;2023-07-31T12:46:07;17.60;99.90
23744;DHT22;12052;53.478;10.182;2023-07-31T12:48:33;17.70;99.90
23744;DHT22;12052;53.478;10.182;2023-07-31T12:50:59;17.80;99.90
23744;DHT22;12052;53.478;10.182;2023-07-31T12:53:25;17.70;99.90
23744;DHT22;12052;53.478;10.182;2023-07-31T12:55:51;17.70;99.90
23744;DHT22;12052;53.478;10.182;2023-07-31T12:58:17;17.70;99.90
23744;DHT22;12052;53.478;10.182;2023-07-31T13:00:42;17.60;99.90
23744;DHT22;12052;53.478;10.182;2023-07-31T13:03:08;17.60;99.90
23744;DHT22;12052;53.478;10.182;2023-07-31T13:05:34;17.60;99.90
23744;DHT22;12052;53.478;10.182;2023-07-31T13:07:59;17.60;99.90
23744;DHT22;12052;53.478;10.182;2023-07-31T13:10:25;17.60;99.90
23744;DHT22;12052;53.478;10.182;2023-07-31T13:12:52;17.60;99.90
23744;DHT22;12052;53.478;10.182;2023-07-31T13:15:18;17.60;99.90
23744;DHT22;12052;53.478;10.182;2023-07-31T13:17:43;17.60;99.90
23744;DHT22;12052;53.478;10.182;2023-07-31T13:20:09;17.60;99.90
23744;DHT22;12052;53.478;10.182;2023-07-31T13:22:35;17.60;99.90
23744;DHT22;12052;53.478;10.182;2023-07-31T13:25:05;17.70;99.90
23744;DHT22;12052;53.478;10.182;2023-07-31T13:27:31;17.70;99.90
23744;DHT22;12052;53.478;10.182;2023-07-31T13:29:58;17.70;99.90
23744;DHT22;12052;53.478;10.182;2023-07-31T13:32:24;17.70;99.90
23744;DHT22;12052;53.478;10.182;2023-07-31T13:34:50;17.60;99.90
23744;DHT22;12052;53.478;10.182;2023-07-31T13:37:16;17.60;99.90
23744;DHT22;12052;53.478;10.182;2023-07-31T13:39:42;17.60;99.90
23744;DHT22;12052;53.478;10.182;2023-07-31T13:42:08;17.60;99.90
23744;DHT22;12052;53.478;10.182;2023-07-31T13:44:35;17.70;99.90
23744;DHT22;12052;53.478;10.182;2023-07-31T13:47:01;17.70;99.90
23744;DHT22;12052;53.478;10.182;2023-07-31T13:49:27;17.80;99.90
23744;DHT22;12052;53.478;10.182;2023-07-31T13:51:52;17.80;99.90
23744;DHT22;12052;53.478;10.182;2023-07-31T13:54:18;17.90;99.90
23744;DHT22;12052;53.478;10.182;2023-07-31T13:56:44;17.90;99.90
23744;DHT22;12052;53.478;10.182;2023-07-31T13:59:11;18.00;99.90
23744;DHT22;12052;53.478;10.182;2023-07-31T14:01:37;18.10;99.90
23744;DHT22;12052;53.478;10.182;2023-07-31T14:04:03;18.10;99.90
23744;DHT22;12052;53.478;10.182;2023-07-31T14:06:28;18.20;99.90
23744;DHT22;12052;53.478;10.182;2023-07-31T14:08:54;18.20;99.90
23744;DHT22;12052;53.478;10.182;2023-07-31T14:11:21;18.10;99.90
23744;DHT22;12052;53.478;10.182;2023-07-31T14:13:47;18.10;99.90
23744;DHT22;12052;53.478;10.182;2023-07-31T14:16:13;18.10;99.90
23744;DHT22;12052;53.478;10.182;2023-07-31T14:18:38;18.10;99.90
23744;DHT22;12052;53.478;10.182;2023-07-31T14:21:04;18.00;99.90
23744;DHT22;12052;53.478;10.182;2023-07-31T14:23:34;17.90;99.90
23744;DHT22;12052;53.478;10.182;2023-07-31T14:25:59;17.90;99.90
23744;DHT22;12052;53.478;10.182;2023-07-31T14:28:25;17.90;99.90
23744;DHT22;12052;53.478;10.182;2023-07-31T14:30:50;17.80;99.90
23744;DHT22;12052;53.478;10.182;2023-07-31T14:33:16;17.80;99.90
23744;DHT22;12052;53.478;10.182;2023-07-31T14:35:42;17.70;99.90
23744;DHT22;12052;53.478;10.182;2023-07-31T14:38:10;17.60;99.90
23744;DHT22;12052;53.478;10.182;2023-07-31T14:43:44;17.60;99.90
23744;DHT22;12052;53.478;10.182;2023-07-31T14:46:12;17.60;99.90
23744;DHT22;12052;53.478;10.182;2023-07-31T14:48:40;17.60;99.90
23744;DHT22;12052;53.478;10.182;2023-07-31T14:51:05;17.60;99.90
23744;DHT22;12052;53.478;10.182;2023-07-31T14:53:31;17.60;99.90
23744;DHT22;12052;53.478;10.182;2023-07-31T14:56:01;17.60;99.90
23744;DHT22;12052;53.478;10.182;2023-07-31T14:58:32;17.60;99.90
23744;DHT22;12052;53.478;10.182;2023-07-31T15:00:58;17.60;99.90
23744;DHT22;12052;53.478;10.182;2023-07-31T15:03:24;17.60;99.90
23744;DHT22;12052;53.478;10.182;2023-07-31T15:05:50;17.60;99.90
23744;DHT22;12052;53.478;10.182;2023-07-31T15:08:16;17.70;99.90
23744;DHT22;12052;53.478;10.182;2023-07-31T15:10:41;17.70;99.90
23744;DHT22;12052;53.478;10.182;2023-07-31T15:13:31;17.70;99.90
23744;DHT22;12052;53.478;10.182;2023-07-31T15:16:44;17.70;99.90
23744;DHT22;12052;53.478;10.182;2023-07-31T15:22:48;17.70;99.90
23744;DHT22;12052;53.478;10.182;2023-07-31T15:25:24;17.70;99.90
23744;DHT22;12052;53.478;10.182;2023-07-31T15:28:48;17.60;99.90
23744;DHT22;12052;53.478;10.182;2023-07-31T15:31:26;17.60;99.90
23744;DHT22;12052;53.478;10.182;2023-07-31T15:34:15;17.60;99.90
23744;DHT22;12052;53.478;10.182;2023-07-31T15:36:45;17.60;99.90
23744;DHT22;12052;53.478;10.182;2023-07-31T15:39:35;17.60;99.90